Time;durP1;ratioP1;P1;durP2;ratioP2;P2;SDS_P1;SDS_P2;PMS_P1;PMS_P2;Temp;Humidity;BMP_temperature;BMP_pressure;BME280_temperature;BME280_humidity;BME280_pressure;Samples;Min_cycle;Max_cycle;Signal;HPM_P1;HPM_P2
2021/11/12 00:12:32;;;;;;;26.93;24.47;;;3.90;68.80;;;;;;4978520;28;20488;-91
2021/11/12 00:14:59;;;;;;;27.83;25.33;;;4.00;68.70;;;;;;4975694;28;20883;-89
2021/11/12 00:17:28;;;;;;;27.30;24.77;;;3.80;66.80;;;;;;4975603;28;20410;-90
2021/11/12 00:19:54;;;;;;;28.50;25.90;;;3.80;66.80;;;;;;4975706;28;20417;-92
2021/11/12 00:22:22;;;;;;;29.10;26.33;;;3.70;67.20;;;;;;4976129;28;20887;-90
2021/11/12 00:24:50;;;;;;;30.63;27.63;;;3.80;67.70;;;;;;4976293;28;20417;-89
2021/11/12 00:27:16;;;;;;;30.37;27.47;;;3.70;68.30;;;;;;4975490;28;20813;-92
2021/11/12 00:30:00;;;;;;;35.20;31.57;;;3.70;68.20;;;;;;4976520;28;20430;-90
2021/11/12 00:32:40;;;;;;;37.00;33.10;;;3.80;69.50;;;;;;4977403;28;20410;-91
2021/11/12 00:38:02;;;;;;;38.10;33.73;;;3.90;70.90;;;;;;4977576;28;20402;-91
2021/11/12 00:40:34;;;;;;;38.80;34.80;;;3.90;71.60;;;;;;4976512;28;20406;-90
2021/11/12 00:45:26;;;;;;;44.30;37.73;;;3.90;70.50;;;;;;4976970;28;20425;-91
2021/11/12 00:55:18;;;;;;;38.73;34.63;;;3.90;71.60;;;;;;4978906;28;20194;-91
2021/11/12 00:57:44;;;;;;;39.80;35.60;;;3.90;71.60;;;;;;4977711;28;20525;-90
2021/11/12 01:00:12;;;;;;;40.20;35.37;;;3.80;71.20;;;;;;4977423;28;20422;-91
2021/11/12 01:02:38;;;;;;;42.37;37.77;;;3.80;72.00;;;;;;4976266;28;20425;-90
2021/11/12 01:05:05;;;;;;;43.07;37.20;;;3.80;72.30;;;;;;4976354;28;20418;-90
2021/11/12 01:07:31;;;;;;;40.30;35.87;;;3.80;73.10;;;;;;4976499;28;20425;-90
2021/11/12 01:09:58;;;;;;;42.27;37.73;;;3.80;73.30;;;;;;4976292;28;20473;-90
2021/11/12 01:12:24;;;;;;;41.85;37.40;;;3.80;73.00;;;;;;4974411;28;20436;-91
2021/11/12 01:14:50;;;;;;;41.87;35.77;;;3.90;72.20;;;;;;4975718;28;20210;-91
2021/11/12 01:17:16;;;;;;;42.27;36.67;;;3.80;72.50;;;;;;4975323;28;20448;-87
2021/11/12 01:19:42;;;;;;;49.60;38.93;;;3.80;72.90;;;;;;4970679;28;20595;-87
2021/11/12 01:22:08;;;;;;;45.20;39.43;;;3.80;75.00;;;;;;4970945;28;20178;-86
2021/11/12 01:24:35;;;;;;;45.87;38.20;;;3.90;74.80;;;;;;4970928;28;20272;-86
2021/11/12 01:27:01;;;;;;;46.13;38.20;;;3.90;74.70;;;;;;4970998;28;20198;-87
2021/11/12 01:29:27;;;;;;;49.70;41.13;;;3.90;74.00;;;;;;4971167;28;20422;-87
2021/11/12 01:31:53;;;;;;;45.63;40.63;;;3.90;73.70;;;;;;4970271;28;20838;-88
2021/11/12 01:34:19;;;;;;;47.87;41.17;;;3.70;74.80;;;;;;4971832;28;20183;-92
2021/11/12 01:36:46;;;;;;;48.70;39.80;;;3.60;75.00;;;;;;4976060;28;20190;-92
2021/11/12 01:39:18;;;;;;;42.83;38.30;;;3.70;75.10;;;;;;4979846;28;20317;-92
2021/11/12 01:41:48;;;;;;;40.77;35.37;;;3.70;76.00;;;;;;4977838;28;20465;-87
2021/11/12 01:44:14;;;;;;;42.67;35.97;;;3.70;75.20;;;;;;4974086;28;20429;-87
2021/11/12 01:49:13;;;;;;;38.47;34.20;;;3.70;73.60;;;;;;4975697;28;20817;-87
2021/11/12 01:51:44;;;;;;;39.83;35.30;;;3.70;73.90;;;;;;4974010;28;20867;-87
2021/11/12 01:59:22;;;;;;;45.53;39.37;;;3.70;72.20;;;;;;4975479;28;20414;-87
2021/11/12 02:01:53;;;;;;;45.80;40.57;;;3.50;74.60;;;;;;4973214;28;20186;-88
2021/11/12 02:04:28;;;;;;;45.83;39.00;;;3.40;76.10;;;;;;4973796;28;20745;-88
2021/11/12 02:06:56;;;;;;;46.40;41.30;;;3.50;75.90;;;;;;4973647;28;20424;-86
2021/11/12 02:09:23;;;;;;;46.00;39.80;;;3.50;76.20;;;;;;4974021;28;20473;-88
2021/11/12 02:12:05;;;;;;;49.47;42.37;;;3.60;75.50;;;;;;4973723;28;20934;-87
2021/11/12 02:14:32;;;;;;;48.63;37.73;;;3.50;76.20;;;;;;4978517;28;20779;-90
2021/11/12 02:17:14;;;;;;;45.73;38.40;;;3.60;75.20;;;;;;4978245;28;20788;-91
2021/11/12 02:19:50;;;;;;;44.23;38.50;;;3.50;73.90;;;;;;4977958;28;20410;-89
2021/11/12 02:22:16;;;;;;;45.97;39.80;;;3.50;75.60;;;;;;4978776;28;20418;-89
2021/11/12 02:24:49;;;;;;;45.30;40.40;;;3.60;75.40;;;;;;4978663;28;20426;-91
2021/11/12 02:27:17;;;;;;;44.30;38.70;;;3.70;74.90;;;;;;4978177;28;20445;-89
2021/11/12 02:29:53;;;;;;;46.93;40.20;;;3.70;73.60;;;;;;4978360;28;20776;-91
2021/11/12 02:32:25;;;;;;;45.20;40.23;;;3.70;73.80;;;;;;4977580;28;20406;-91
2021/11/12 02:34:54;;;;;;;46.40;40.70;;;3.80;74.40;;;;;;4977668;28;20394;-90
2021/11/12 02:37:21;;;;;;;43.40;38.60;;;3.70;75.10;;;;;;4978134;28;20421;-90
2021/11/12 02:39:48;;;;;;;41.40;36.90;;;3.70;74.30;;;;;;4978152;28;20469;-89
2021/11/12 02:42:14;;;;;;;41.03;36.70;;;3.70;74.20;;;;;;4982294;28;20390;-90
2021/11/12 02:44:42;;;;;;;41.63;37.07;;;3.70;73.90;;;;;;4984103;28;20421;-90
2021/11/12 02:47:13;;;;;;;39.27;35.30;;;3.80;73.30;;;;;;4982020;28;20415;-91
2021/11/12 02:49:39;;;;;;;40.47;36.27;;;3.70;72.90;;;;;;4976333;28;20426;-90
2021/11/12 02:52:07;;;;;;;43.40;36.37;;;3.80;73.10;;;;;;4976606;28;20552;-89
2021/11/12 02:54:34;;;;;;;40.63;34.70;;;3.70;72.50;;;;;;4974286;28;20517;-87
2021/11/12 02:57:01;;;;;;;41.67;35.90;;;3.70;72.50;;;;;;4972677;28;20422;-87
2021/11/12 02:59:27;;;;;;;42.10;37.63;;;3.70;72.40;;;;;;4974078;28;20429;-89
2021/11/12 03:01:55;;;;;;;42.20;37.60;;;3.70;71.50;;;;;;4977765;28;20418;-90
2021/11/12 03:04:22;;;;;;;41.83;35.77;;;3.70;72.70;;;;;;4977761;28;20422;-90
2021/11/12 03:06:49;;;;;;;38.90;34.93;;;3.70;72.70;;;;;;4977562;28;20447;-90
2021/11/12 03:09:15;;;;;;;40.77;36.47;;;3.70;72.60;;;;;;4977668;28;20922;-89
2021/11/12 03:11:43;;;;;;;36.43;32.53;;;3.60;71.70;;;;;;4977833;28;20458;-91
2021/11/12 03:14:11;;;;;;;37.13;33.13;;;3.70;71.40;;;;;;4978871;28;20474;-90
2021/11/12 03:16:37;;;;;;;37.73;33.17;;;3.70;70.10;;;;;;4977879;28;20776;-90
2021/11/12 03:19:07;;;;;;;41.73;33.97;;;3.60;71.10;;;;;;4977195;28;20478;-91
2021/11/12 03:21:33;;;;;;;36.60;32.67;;;3.50;70.60;;;;;;4977743;28;20469;-91
2021/11/12 03:24:06;;;;;;;36.50;32.97;;;3.50;70.70;;;;;;4976919;28;20437;-91
2021/11/12 03:26:41;;;;;;;39.47;34.77;;;3.50;71.30;;;;;;4976275;28;20437;-90
2021/11/12 04:04:40;;;;;;;42.50;37.90;;;3.30;71.30;;;;;;4979013;28;20418;-89
2021/11/12 04:07:29;;;;;;;42.73;35.90;;;3.30;74.30;;;;;;4977065;28;20420;-89
2021/11/12 05:11:11;;;;;;;43.90;36.10;;;2.80;79.50;;;;;;4954526;29;20454;-88
2021/11/12 05:56:04;;;;;;;38.70;34.67;;;2.60;80.90;;;;;;4961180;29;20913;-86
2021/11/12 05:58:30;;;;;;;44.70;38.70;;;2.80;81.10;;;;;;4955821;29;20423;-86
2021/11/12 06:00:57;;;;;;;43.00;36.70;;;2.80;80.40;;;;;;4939603;29;20955;-86
2021/11/12 06:03:23;;;;;;;38.73;34.57;;;2.70;80.70;;;;;;4972179;28;20422;-87
2021/11/12 06:05:48;;;;;;;43.33;38.00;;;2.80;81.00;;;;;;4955182;29;20637;-86
2021/11/12 06:08:14;;;;;;;43.43;38.20;;;2.80;81.70;;;;;;4956512;28;20223;-87
2021/11/12 06:10:40;;;;;;;40.70;35.30;;;2.70;81.10;;;;;;4956000;29;20218;-85
2021/11/12 06:13:06;;;;;;;42.20;35.43;;;2.80;81.20;;;;;;4955714;29;20521;-85
2021/11/12 06:15:32;;;;;;;40.77;36.40;;;2.70;80.60;;;;;;4972020;28;20620;-87
2021/11/12 06:17:57;;;;;;;44.13;37.93;;;2.70;79.90;;;;;;4955066;29;20187;-86
2021/11/12 06:20:23;;;;;;;45.00;38.83;;;2.60;81.20;;;;;;4955300;29;20559;-87
2021/11/12 06:22:49;;;;;;;43.73;38.27;;;2.70;83.40;;;;;;4956220;28;20210;-90
2021/11/12 06:25:15;;;;;;;48.00;37.83;;;2.70;83.40;;;;;;4957185;29;20188;-89
2021/11/12 06:27:40;;;;;;;50.07;38.63;;;2.70;82.20;;;;;;4957678;29;20741;-91
2021/11/12 06:30:08;;;;;;;45.93;38.47;;;2.60;81.90;;;;;;4957522;29;20536;-91
2021/11/12 06:32:34;;;;;;;43.13;37.87;;;2.60;83.70;;;;;;4957472;29;20181;-91
2021/11/12 06:35:00;;;;;;;42.23;37.73;;;2.50;83.00;;;;;;4957838;29;20510;-92
2021/11/12 06:37:26;;;;;;;39.30;35.00;;;2.80;84.40;;;;;;4957761;29;20440;-92
2021/11/12 06:39:51;;;;;;;37.83;33.80;;;2.90;82.90;;;;;;4956303;29;20410;-90
2021/11/12 06:42:23;;;;;;;38.13;34.03;;;3.00;80.50;;;;;;4956314;29;20663;-91
2021/11/12 06:50:15;;;;;;;35.03;31.17;;;3.10;75.80;;;;;;4956972;29;20198;-88
2021/11/12 06:52:46;;;;;;;36.77;32.87;;;3.10;75.10;;;;;;4955870;29;20789;-88
2021/11/12 06:55:14;;;;;;;36.70;32.83;;;3.10;74.80;;;;;;4953701;29;20415;-87
2021/11/12 06:57:41;;;;;;;38.13;34.23;;;3.10;75.00;;;;;;4954836;29;20414;-85
2021/11/12 07:00:11;;;;;;;38.27;33.40;;;3.10;75.30;;;;;;4954984;29;20928;-89
2021/11/12 07:02:37;;;;;;;37.03;33.10;;;3.10;75.30;;;;;;4956065;29;20769;-90
2021/11/12 07:05:04;;;;;;;37.97;34.07;;;3.10;75.80;;;;;;4955655;29;20440;-89
2021/11/12 07:07:30;;;;;;;37.07;33.20;;;3.10;76.00;;;;;;4956099;28;20407;-89
2021/11/12 07:09:56;;;;;;;38.57;34.57;;;3.20;74.70;;;;;;4954764;29;20928;-89
2021/11/12 07:12:22;;;;;;;36.80;33.10;;;3.20;74.10;;;;;;4955446;29;20911;-89
2021/11/12 07:14:48;;;;;;;39.70;35.43;;;3.10;73.80;;;;;;4955417;29;20454;-89
2021/11/12 07:17:14;;;;;;;37.80;33.87;;;3.10;73.70;;;;;;4955068;29;20546;-89
2021/11/12 07:19:41;;;;;;;39.80;35.80;;;3.10;75.20;;;;;;4954942;29;20407;-89
2021/11/12 07:22:07;;;;;;;41.00;36.70;;;3.10;75.60;;;;;;4955262;29;20480;-89
2021/11/12 07:24:34;;;;;;;41.17;36.83;;;3.10;74.70;;;;;;4955570;29;20186;-88
2021/11/12 07:27:00;;;;;;;41.33;36.47;;;3.10;73.80;;;;;;4957284;29;20552;-88
2021/11/12 07:29:28;;;;;;;41.13;36.73;;;3.20;73.80;;;;;;4960879;29;20418;-88
2021/11/12 07:31:55;;;;;;;49.00;34.92;;;3.20;73.50;;;;;;4955934;29;20556;-88
2021/11/12 07:34:21;;;;;;;44.13;36.97;;;3.30;72.90;;;;;;4955156;28;20214;-87
2021/11/12 07:36:51;;;;;;;40.50;36.10;;;3.20;74.10;;;;;;4956345;29;20823;-88
2021/11/12 07:49:05;;;;;;;39.27;35.17;;;3.10;74.20;;;;;;4955173;28;20180;-84
2021/11/12 07:51:31;;;;;;;40.87;34.97;;;3.20;75.00;;;;;;4952968;29;20497;-84
2021/11/12 07:53:57;;;;;;;39.53;35.23;;;3.30;74.10;;;;;;4953725;29;20411;-85
2021/11/12 07:56:25;;;;;;;38.07;33.17;;;3.40;74.20;;;;;;4954364;29;20785;-87
2021/11/12 07:58:51;;;;;;;38.27;34.17;;;3.20;73.80;;;;;;4955123;29;20423;-86
2021/11/12 08:01:16;;;;;;;37.80;32.30;;;3.20;75.00;;;;;;4954381;29;20423;-85
2021/11/12 08:03:44;;;;;;;40.87;34.07;;;3.30;74.00;;;;;;4954204;29;20426;-88
2021/11/12 08:06:16;;;;;;;41.53;34.80;;;3.30;74.80;;;;;;4954991;29;20271;-87
2021/11/12 08:08:51;;;;;;;38.47;34.37;;;3.30;73.50;;;;;;4956378;28;20509;-85
2021/11/12 08:11:20;;;;;;;35.97;32.20;;;3.30;75.20;;;;;;4954970;29;20512;-89
2021/11/12 08:14:31;;;;;;;37.30;32.80;;;3.40;74.10;;;;;;4960258;28;20427;-89
2021/11/12 08:16:57;;;;;;;33.33;30.03;;;3.40;72.90;;;;;;4952713;29;20427;-88
2021/11/12 08:19:28;;;;;;;36.70;32.87;;;3.30;71.90;;;;;;4955795;28;20781;-88
2021/11/12 08:39:58;;;;;;;28.87;26.50;;;3.50;66.80;;;;;;4974784;28;20468;-88
2021/11/12 08:42:31;;;;;;;28.10;25.67;;;3.50;66.60;;;;;;4973413;28;20409;-90
2021/11/12 08:45:03;;;;;;;29.30;26.80;;;3.60;66.00;;;;;;4972847;28;20486;-85
2021/11/12 08:47:40;;;;;;;30.90;27.80;;;3.60;67.10;;;;;;4971214;28;20759;-84
2021/11/12 08:50:19;;;;;;;28.37;25.67;;;3.70;66.50;;;;;;4971799;28;20414;-86
2021/11/12 08:52:52;;;;;;;29.23;26.57;;;3.70;66.50;;;;;;4971705;28;20418;-86
2021/11/12 08:55:27;;;;;;;29.10;26.40;;;3.70;65.90;;;;;;4972460;28;20418;-87
2021/11/12 08:57:54;;;;;;;28.33;25.83;;;3.70;66.50;;;;;;4972047;28;20476;-87
2021/11/12 09:00:20;;;;;;;29.03;26.40;;;3.80;66.60;;;;;;4971830;28;20421;-86
2021/11/12 09:02:47;;;;;;;27.23;24.73;;;3.80;66.00;;;;;;4972689;28;20418;-88
2021/11/12 09:05:13;;;;;;;26.47;24.07;;;3.70;66.10;;;;;;4972863;28;20186;-87
2021/11/12 09:07:39;;;;;;;27.17;24.30;;;3.70;66.50;;;;;;4972220;28;20426;-87
2021/11/12 09:10:05;;;;;;;28.50;25.80;;;3.70;66.50;;;;;;4973809;28;20768;-87
2021/11/12 09:12:31;;;;;;;29.87;27.17;;;3.70;66.10;;;;;;4972510;28;20525;-86
2021/11/12 09:14:59;;;;;;;29.60;26.50;;;3.80;66.50;;;;;;4971666;28;20476;-88
2021/11/12 09:17:30;;;;;;;29.50;26.90;;;3.80;66.60;;;;;;4971742;28;20417;-86
2021/11/12 09:20:00;;;;;;;28.47;25.73;;;4.00;66.50;;;;;;4972283;28;20907;-86
2021/11/12 09:22:31;;;;;;;27.67;25.20;;;4.00;65.40;;;;;;4972047;28;20429;-89
2021/11/12 09:24:58;;;;;;;28.10;25.23;;;4.20;65.60;;;;;;4974602;28;20880;-89
2021/11/12 09:27:26;;;;;;;33.43;29.93;;;4.40;64.70;;;;;;4974094;28;20422;-89
2021/11/12 09:29:52;;;;;;;33.17;29.73;;;4.50;64.30;;;;;;4974222;28;20428;-90
2021/11/12 09:32:19;;;;;;;37.10;33.30;;;4.50;65.20;;;;;;4974156;28;20556;-90
2021/11/12 09:34:45;;;;;;;35.10;31.40;;;4.70;65.30;;;;;;4974131;28;20261;-91
2021/11/12 09:37:19;;;;;;;38.67;32.77;;;4.50;63.80;;;;;;4973005;28;20505;-86
2021/11/12 09:39:47;;;;;;;37.13;33.27;;;4.50;65.80;;;;;;4971485;28;20566;-87
2021/11/12 09:42:14;;;;;;;35.40;32.00;;;4.40;65.00;;;;;;4971630;28;20432;-86
2021/11/12 09:44:41;;;;;;;35.77;31.63;;;4.50;65.90;;;;;;4971368;28;20424;-87
2021/11/12 09:47:09;;;;;;;36.87;33.00;;;4.50;65.90;;;;;;4971565;28;20429;-88
2021/11/12 09:49:36;;;;;;;35.97;31.80;;;4.60;64.90;;;;;;4972992;28;20961;-89
2021/11/12 09:52:02;;;;;;;34.17;30.60;;;4.50;65.60;;;;;;4975428;28;20468;-89
2021/11/12 09:54:28;;;;;;;38.53;34.40;;;4.40;67.90;;;;;;4975876;28;20410;-88
2021/11/12 09:56:53;;;;;;;38.23;34.23;;;4.40;67.10;;;;;;4973848;28;20585;-88
2021/11/12 09:59:19;;;;;;;40.33;31.30;;;4.30;67.20;;;;;;4985832;28;20183;-87
2021/11/12 10:01:45;;;;;;;36.93;32.40;;;4.40;67.70;;;;;;4981432;28;20664;-88
2021/11/12 10:04:11;;;;;;;40.27;32.50;;;4.30;67.90;;;;;;4974269;28;20277;-88
2021/11/12 10:06:44;;;;;;;37.33;33.60;;;4.20;69.10;;;;;;4957553;29;20187;-88
2021/11/12 10:09:18;;;;;;;40.50;36.10;;;4.30;70.10;;;;;;4958491;29;20434;-88
2021/11/12 10:11:54;;;;;;;41.30;33.80;;;4.20;70.00;;;;;;4958668;28;21115;-89
2021/11/12 10:14:39;;;;;;;40.00;33.17;;;4.10;70.90;;;;;;4975207;28;20445;-85
2021/11/12 10:17:07;;;;;;;36.83;32.67;;;4.20;70.80;;;;;;4980685;28;20426;-88
2021/11/12 10:19:41;;;;;;;37.80;33.90;;;4.30;70.40;;;;;;4979828;28;20834;-87
2021/11/12 10:22:07;;;;;;;37.67;33.45;;;4.40;69.10;;;;;;4981567;28;20430;-88
2021/11/12 10:24:37;;;;;;;34.33;30.53;;;4.40;68.00;;;;;;4987983;28;20198;-88
2021/11/12 10:27:08;;;;;;;37.57;33.63;;;4.30;67.70;;;;;;4987751;28;20418;-87
2021/11/12 10:29:40;;;;;;;38.80;34.70;;;4.30;68.40;;;;;;4978663;28;20426;-90
2021/11/12 10:32:08;;;;;;;38.23;34.30;;;4.20;68.20;;;;;;4979658;28;20453;-89
2021/11/12 10:34:38;;;;;;;38.70;34.50;;;4.20;70.10;;;;;;4978795;28;20430;-88
2021/11/12 10:37:11;;;;;;;38.87;33.73;;;4.20;69.80;;;;;;4982321;28;20394;-90
2021/11/12 10:39:40;;;;;;;40.03;34.43;;;4.10;70.30;;;;;;4978929;28;20754;-90
2021/11/12 10:42:12;;;;;;;39.23;34.83;;;4.10;71.10;;;;;;4979519;28;20419;-90
2021/11/12 10:44:44;;;;;;;44.60;34.13;;;4.30;69.50;;;;;;4981887;28;20426;-90
2021/11/12 10:47:11;;;;;;;43.30;36.80;;;4.20;70.70;;;;;;4980001;28;20406;-91
2021/11/12 10:49:43;;;;;;;41.53;37.13;;;4.40;70.30;;;;;;4978805;28;20418;-91
2021/11/12 10:52:14;;;;;;;40.27;36.27;;;4.30;68.00;;;;;;4978796;28;21050;-91
2021/11/12 10:55:19;;;;;;;41.33;36.57;;;4.30;71.00;;;;;;4980273;28;20830;-88
2021/11/12 10:57:50;;;;;;;39.60;35.60;;;4.30;70.20;;;;;;4982457;28;20421;-90
2021/11/12 11:00:32;;;;;;;40.47;36.17;;;4.40;69.80;;;;;;4981329;28;20395;-91
2021/11/12 11:03:17;;;;;;;40.97;36.57;;;4.60;70.00;;;;;;4980930;28;20422;-94
2021/11/12 11:05:58;;;;;;;41.23;37.00;;;4.60;68.60;;;;;;4980279;28;20422;-91
2021/11/12 11:08:27;;;;;;;39.20;35.17;;;4.60;68.40;;;;;;4979723;28;20421;-91
2021/11/12 11:11:04;;;;;;;38.67;34.80;;;4.70;68.50;;;;;;4981791;28;21007;-93
2021/11/12 11:13:33;;;;;;;36.13;32.23;;;4.70;66.80;;;;;;4982687;28;20411;-92
2021/11/12 11:16:04;;;;;;;38.33;34.20;;;4.90;67.60;;;;;;4980921;28;20462;-94
2021/11/12 11:18:42;;;;;;;37.00;33.20;;;4.90;66.00;;;;;;4980773;28;20453;-92
2021/11/12 11:24:07;;;;;;;37.60;33.53;;;4.80;65.00;;;;;;4981198;28;20445;-92
2021/11/12 11:26:44;;;;;;;46.00;41.47;;;4.80;64.50;;;;;;4980675;28;20472;-92
2021/11/12 11:29:13;;;;;;;39.93;35.93;;;4.70;65.40;;;;;;4979654;28;20426;-90
2021/11/12 11:31:39;;;;;;;39.83;35.97;;;4.70;66.10;;;;;;4979546;28;20974;-92
2021/11/12 11:34:06;;;;;;;37.17;33.63;;;4.70;66.40;;;;;;4979020;28;20457;-90
2021/11/12 11:36:35;;;;;;;39.00;34.93;;;4.80;65.40;;;;;;4979418;28;20446;-92
2021/11/12 11:39:04;;;;;;;33.87;30.47;;;4.90;64.80;;;;;;4983324;28;20461;-92
2021/11/12 11:44:52;;;;;;;36.83;33.13;;;4.80;65.30;;;;;;4984572;28;20382;-91
2021/11/12 11:47:23;;;;;;;39.50;35.30;;;4.80;65.00;;;;;;4993624;28;20489;-91
2021/11/12 11:49:53;;;;;;;36.77;32.87;;;4.80;65.70;;;;;;4993809;28;20453;-92
2021/11/12 11:52:27;;;;;;;44.47;39.67;;;4.80;65.40;;;;;;4989273;28;20470;-93
2021/11/12 11:54:54;;;;;;;43.87;39.40;;;4.90;66.30;;;;;;4993725;28;20514;-92
2021/11/12 11:57:27;;;;;;;48.50;43.50;;;5.00;65.80;;;;;;4984403;28;20426;-94
2021/11/12 12:00:18;;;;;;;44.93;40.63;;;5.10;66.00;;;;;;4980280;28;21030;-92
2021/11/12 12:02:43;;;;;;;46.70;42.00;;;5.00;65.50;;;;;;4980265;28;20422;-92
2021/11/12 12:05:09;;;;;;;41.07;36.63;;;5.00;65.80;;;;;;4982865;28;20433;-92
2021/11/12 12:07:42;;;;;;;39.57;35.63;;;5.10;66.20;;;;;;4981522;28;20175;-92
2021/11/12 12:10:21;;;;;;;39.20;35.33;;;5.20;66.00;;;;;;4980803;28;20206;-93
2021/11/12 12:12:49;;;;;;;52.57;47.27;;;5.30;65.40;;;;;;4978828;28;20478;-93
2021/11/12 12:15:15;;;;;;;47.23;42.63;;;5.40;64.80;;;;;;4978068;28;20502;-92
2021/11/12 12:17:49;;;;;;;42.70;38.03;;;5.40;64.40;;;;;;4979903;28;20425;-92
2021/11/12 13:20:41;;;;;;;40.20;35.90;;;6.30;62.70;;;;;;4956421;29;20767;-85
2021/11/12 13:25:06;;;;;;;41.67;35.20;;;6.20;63.30;;;;;;4960545;28;20913;-87
2021/11/12 13:27:32;;;;;;;41.00;36.83;;;6.10;63.40;;;;;;4972955;28;20429;-85
2021/11/12 13:29:58;;;;;;;44.60;39.60;;;6.20;63.80;;;;;;4963431;28;20415;-86
2021/11/12 13:32:24;;;;;;;42.33;37.97;;;6.20;63.70;;;;;;4966536;28;20458;-86
2021/11/12 13:34:49;;;;;;;41.53;36.70;;;6.20;63.90;;;;;;4977153;28;20187;-88
2021/11/12 13:37:22;;;;;;;42.90;38.20;;;6.30;63.50;;;;;;4970555;28;20183;-89
2021/11/12 13:40:13;;;;;;;41.77;37.37;;;6.20;63.30;;;;;;4957501;29;20191;-87
2021/11/12 13:42:41;;;;;;;42.63;37.00;;;6.20;63.90;;;;;;4973669;28;20429;-89
2021/11/12 13:45:21;;;;;;;45.33;37.67;;;6.20;63.80;;;;;;4960197;28;20426;-87
2021/11/12 13:48:12;;;;;;;42.20;36.27;;;6.20;64.60;;;;;;4967339;28;20427;-89
2021/11/12 13:50:41;;;;;;;40.23;35.87;;;6.20;64.80;;;;;;4957231;28;20470;-87
2021/11/12 13:53:08;;;;;;;43.23;38.17;;;6.20;65.30;;;;;;4976275;28;20573;-88
2021/11/12 13:55:44;;;;;;;44.60;39.37;;;6.20;65.30;;;;;;4976147;28;20466;-88
2021/11/12 13:58:10;;;;;;;44.13;37.83;;;6.10;65.20;;;;;;4980586;28;20417;-89
2021/11/12 14:00:40;;;;;;;45.00;40.20;;;6.20;65.30;;;;;;4978495;28;20414;-87
2021/11/12 14:03:11;;;;;;;46.70;40.97;;;6.20;66.10;;;;;;4959458;29;20514;-86
2021/11/12 14:05:39;;;;;;;42.37;37.90;;;6.20;66.20;;;;;;4964044;28;20928;-87
2021/11/12 14:08:05;;;;;;;45.40;40.50;;;6.20;65.80;;;;;;4962987;28;20455;-87
2021/11/12 14:10:38;;;;;;;43.43;38.73;;;6.10;65.80;;;;;;4955152;29;20423;-87
2021/11/12 14:13:06;;;;;;;45.23;40.30;;;6.00;66.00;;;;;;4955372;29;20515;-87
2021/11/12 14:15:45;;;;;;;44.80;39.20;;;5.90;67.50;;;;;;4962832;28;20422;-87
2021/11/12 14:19:07;;;;;;;45.10;40.37;;;5.80;67.80;;;;;;4974777;28;20426;-86
2021/11/12 14:35:26;;;;;;;47.57;38.10;;;5.40;71.80;;;;;;4975657;28;20437;-86
2021/11/12 14:49:33;;;;;;;45.77;38.73;;;5.00;74.10;;;;;;4959071;28;20751;-88
2021/11/12 14:54:43;;;;;;;42.53;37.80;;;4.70;76.30;;;;;;4958179;28;20785;-88
2021/11/12 14:57:52;;;;;;;42.53;38.03;;;4.80;74.80;;;;;;4957277;29;20419;-88
2021/11/12 15:00:08;;;;;;;41.73;36.20;;;4.60;75.40;;;;;;4953371;29;20431;-88
2021/11/12 15:02:46;;;;;;;38.80;34.60;;;4.60;75.30;;;;;;4973035;28;20469;-86
2021/11/12 15:05:14;;;;;;;37.90;32.13;;;4.50;76.40;;;;;;4977197;28;20909;-87
2021/11/12 15:08:00;;;;;;;37.97;33.23;;;4.40;75.90;;;;;;4978292;28;20426;-87
2021/11/12 15:10:28;;;;;;;37.37;33.47;;;4.40;76.10;;;;;;4989364;28;20410;-86
2021/11/12 15:12:56;;;;;;;37.83;33.30;;;4.30;75.00;;;;;;4983494;28;20419;-86
2021/11/12 15:15:23;;;;;;;39.03;33.63;;;4.20;77.40;;;;;;4958698;29;20425;-87
2021/11/12 15:17:52;;;;;;;41.80;34.37;;;4.10;76.70;;;;;;4965310;28;20414;-87
2021/11/12 15:20:18;;;;;;;42.50;35.20;;;4.10;77.00;;;;;;4975155;28;20833;-86
2021/11/12 15:27:54;;;;;;;37.73;33.70;;;4.10;78.30;;;;;;4976735;28;20488;-89
2021/11/12 15:30:26;;;;;;;39.37;35.17;;;4.10;80.60;;;;;;4975954;28;20281;-87
2021/11/12 15:33:04;;;;;;;38.40;34.27;;;4.00;80.10;;;;;;4981521;28;20415;-87
2021/11/12 15:35:31;;;;;;;36.53;32.80;;;4.00;81.20;;;;;;4955674;29;20820;-88
2021/11/12 15:43:00;;;;;;;40.50;33.67;;;4.00;79.20;;;;;;4956694;28;20504;-90
2021/11/12 15:47:57;;;;;;;40.50;34.17;;;4.00;81.90;;;;;;4957093;28;20419;-91
2021/11/12 15:50:36;;;;;;;37.90;33.77;;;4.00;81.50;;;;;;4955886;29;20700;-90
2021/11/12 15:55:38;;;;;;;38.07;32.70;;;3.90;78.30;;;;;;4958373;28;20510;-89
2021/11/12 16:09:05;;;;;;;37.30;33.30;;;3.80;80.50;;;;;;4957844;28;20933;-89
2021/11/12 16:11:40;;;;;;;46.13;34.20;;;3.80;80.50;;;;;;4956846;29;20467;-90
2021/11/12 16:14:14;;;;;;;45.03;36.83;;;3.80;80.70;;;;;;4956358;29;20411;-90
2021/11/12 16:17:16;;;;;;;42.70;34.73;;;3.80;81.20;;;;;;4956075;29;20423;-90
2021/11/12 16:27:32;;;;;;;48.50;36.50;;;3.70;85.00;;;;;;4956804;28;20562;-89
2021/11/12 16:30:02;;;;;;;38.90;33.20;;;3.70;85.90;;;;;;4955372;29;20435;-91
2021/11/12 16:32:49;;;;;;;39.80;34.67;;;3.80;84.50;;;;;;4955270;29;20478;-89
2021/11/12 16:35:20;;;;;;;47.40;34.50;;;3.80;83.50;;;;;;4955521;29;20415;-89
2021/11/12 16:37:51;;;;;;;42.50;33.07;;;3.70;82.90;;;;;;4956406;29;20481;-89
2021/11/12 16:40:22;;;;;;;41.97;34.77;;;3.70;84.20;;;;;;4965882;29;20438;-88
2021/11/12 17:46:49;;;;;;;38.47;33.40;;;4.30;80.10;;;;;;4953975;28;20450;-90
2021/11/12 21:48:17;;;;;;;27.00;24.47;;;3.30;74.00;;;;;;4956003;28;20778;-89
2021/11/12 21:50:43;;;;;;;27.93;25.43;;;3.20;73.70;;;;;;4954155;29;20506;-89
2021/11/12 21:53:09;;;;;;;27.90;25.30;;;3.30;74.90;;;;;;4953759;28;20468;-90
2021/11/12 21:55:35;;;;;;;30.17;27.57;;;3.30;75.10;;;;;;4956325;29;20415;-86
2021/11/12 21:58:02;;;;;;;28.23;25.60;;;3.30;74.80;;;;;;4956064;29;20175;-85
2021/11/12 22:00:28;;;;;;;28.60;26.10;;;3.40;74.20;;;;;;4957272;28;20203;-86
2021/11/12 22:02:55;;;;;;;27.47;24.97;;;3.40;73.80;;;;;;4955790;29;20430;-86
2021/11/12 22:05:21;;;;;;;26.47;23.87;;;3.30;73.60;;;;;;4955717;29;20422;-86
2021/11/12 22:07:48;;;;;;;29.13;26.33;;;3.30;73.80;;;;;;4955605;29;20430;-86
2021/11/12 22:10:14;;;;;;;25.60;23.30;;;3.30;74.20;;;;;;4955606;29;20901;-86
2021/11/12 22:12:40;;;;;;;25.20;22.87;;;3.30;74.10;;;;;;4960040;28;20529;-88
2021/11/12 22:15:07;;;;;;;27.53;24.93;;;3.40;76.20;;;;;;4995144;28;20418;-94
2021/11/12 22:17:33;;;;;;;26.33;24.03;;;3.60;74.00;;;;;;4983180;28;20222;-93
2021/11/12 22:19:59;;;;;;;26.63;24.23;;;3.70;72.10;;;;;;4980680;28;20524;-84
2021/11/12 22:22:28;;;;;;;28.27;25.67;;;3.80;71.80;;;;;;4958626;29;20962;-91
2021/11/12 22:25:02;;;;;;;25.30;23.07;;;3.90;69.50;;;;;;4943146;29;20183;-88
2021/11/12 22:27:28;;;;;;;25.33;23.13;;;3.80;68.80;;;;;;4957585;29;20769;-91
2021/11/12 22:29:54;;;;;;;25.03;22.67;;;3.80;69.40;;;;;;4957575;29;20466;-92
2021/11/12 22:32:21;;;;;;;25.30;22.90;;;3.80;68.40;;;;;;4964760;28;20698;-92
2021/11/12 22:34:48;;;;;;;25.07;22.87;;;3.80;69.40;;;;;;4971310;28;20262;-92
2021/11/12 22:37:13;;;;;;;26.63;24.30;;;3.90;68.40;;;;;;4977429;28;20869;-91
2021/11/12 22:39:42;;;;;;;25.70;23.50;;;3.80;68.60;;;;;;4977127;28;20457;-91
2021/11/12 22:42:09;;;;;;;25.07;22.83;;;3.70;69.30;;;;;;4976859;28;20179;-92
2021/11/12 22:44:35;;;;;;;26.37;24.00;;;3.70;68.20;;;;;;4976098;28;20422;-92
2021/11/12 22:47:02;;;;;;;26.73;24.23;;;3.70;69.00;;;;;;4977313;28;20414;-93
2021/11/12 22:49:31;;;;;;;27.77;24.97;;;3.70;69.30;;;;;;4966924;28;20179;-94
2021/11/12 22:51:57;;;;;;;25.80;23.47;;;3.60;69.00;;;;;;4960213;29;20467;-93
2021/11/12 22:54:24;;;;;;;26.30;23.90;;;3.70;69.30;;;;;;4958670;29;20442;-92
2021/11/12 22:56:50;;;;;;;24.70;22.60;;;3.70;69.50;;;;;;4958336;29;20430;-93
2021/11/12 22:59:16;;;;;;;24.70;22.50;;;3.70;69.40;;;;;;4958892;29;20414;-92
2021/11/12 23:01:54;;;;;;;25.93;23.63;;;3.70;69.30;;;;;;4964028;28;20907;-91
2021/11/12 23:04:19;;;;;;;26.23;23.80;;;3.70;69.50;;;;;;4977017;28;20422;-88
2021/11/12 23:06:47;;;;;;;23.40;21.30;;;3.80;68.80;;;;;;4977560;28;20414;-93
2021/11/12 23:09:13;;;;;;;27.03;24.73;;;3.80;68.70;;;;;;4995084;28;20175;-94
2021/11/12 23:11:39;;;;;;;27.13;24.53;;;3.70;68.80;;;;;;4995653;28;20465;-94
2021/11/12 23:14:05;;;;;;;24.63;22.43;;;3.80;68.80;;;;;;4995233;28;20484;-93
2021/11/12 23:16:31;;;;;;;27.20;24.87;;;3.70;68.50;;;;;;4995491;28;20422;-93
2021/11/12 23:18:57;;;;;;;28.67;26.07;;;3.70;68.70;;;;;;4994888;28;20445;-94
2021/11/12 23:21:23;;;;;;;26.20;23.80;;;3.60;69.40;;;;;;4996154;28;20422;-93
2021/11/12 23:23:53;;;;;;;27.77;25.17;;;3.70;69.20;;;;;;4996686;28;20181;-93
2021/11/12 23:26:24;;;;;;;28.97;26.20;;;3.70;70.20;;;;;;5000311;28;20419;-92